| time (UTC) | temp F | wind direction | speed MPH | gust MPH | rain 1hr in | rain 24hr in | rain mn in | humidity % | barometer mb |
| 20260510005018 | 59 | 315 | 1.0 | 3.0 | 0.00 | 0.00 | 0.00 | 73 | 1011.8 |
| 20260510004028 | 59 | 338 | 1.0 | 3.0 | 0.00 | 0.00 | 0.00 | 74 | 1012.0 |
| 20260510003018 | 59 | 338 | 1.0 | 2.0 | 0.00 | 0.00 | 0.00 | 74 | 1012.1 |
| 20260510002018 | 59 | 338 | 1.0 | 3.0 | 0.00 | 0.00 | 0.00 | 74 | 1012.1 |
| 20260510001018 | 59 | 135 | 1.0 | 3.0 | 0.00 | 0.00 | 0.00 | 75 | 1012.3 |
| 20260510000018 | 59 | 113 | 1.0 | 3.0 | 0.00 | 0.00 | 0.00 | 74 | 1012.5 |
| 20260509235028 | 59 | 0.0 | 1.0 | 0.00 | 0.00 | 0.00 | 74 | 1012.5 | |
| 20260509234018 | 59 | 315 | 1.0 | 4.0 | 0.00 | 0.00 | 0.00 | 74 | 1012.5 |
| 20260509233018 | 59 | 0.0 | 2.0 | 0.00 | 0.00 | 0.00 | 74 | 1012.6 | |
| 20260509232028 | 60 | 0.0 | 1.0 | 0.00 | 0.00 | 0.00 | 74 | 1012.7 | |
| 20260509231018 | 60 | 0.0 | 2.0 | 0.00 | 0.00 | 0.00 | 74 | 1012.7 | |
| 20260509230018 | 60 | 0.0 | 1.0 | 0.00 | 0.00 | 0.00 | 74 | 1012.8 | |
| 20260509225018 | 60 | 0.0 | 1.0 | 0.00 | 0.00 | 0.00 | 74 | 1012.8 | |
| 20260509224019 | 60 | 0.0 | 1.0 | 0.00 | 0.00 | 0.00 | 74 | 1012.9 | |
| 20260509223019 | 61 | 0.0 | 2.0 | 0.00 | 0.00 | 0.00 | 74 | 1013.0 | |
| 20260509222017 | 60 | 0.0 | 2.0 | 0.00 | 0.00 | 0.00 | 75 | 1012.8 | |
| 20260509221018 | 60 | 0.0 | 2.0 | 0.00 | 0.00 | 0.00 | 77 | 1012.9 | |
| 20260509220018 | 60 | 0.0 | 2.0 | 0.00 | 0.00 | 0.00 | 79 | 1012.8 | |
| 20260509215017 | 59 | 0.0 | 1.0 | 0.00 | 0.00 | 0.00 | 79 | 1012.8 | |
| 20260509214018 | 59 | 0.0 | 2.0 | 0.00 | 0.00 | 0.00 | 80 | 1012.8 | |
| 20260509213017 | 59 | 0.0 | 0.0 | 0.00 | 0.00 | 0.00 | 80 | 1012.9 | |
| 20260509212017 | 59 | 0.0 | 0.0 | 0.00 | 0.00 | 0.00 | 80 | 1012.9 | |
| 20260509211017 | 60 | 0.0 | 0.0 | 0.00 | 0.00 | 0.00 | 79 | 1012.9 | |
| 20260509210028 | 60 | 0.0 | 0.0 | 0.00 | 0.00 | 0.00 | 79 | 1012.9 | |
| 20260509205017 | 60 | 0.0 | 0.0 | 0.00 | 0.00 | 0.00 | 78 | 1012.8 | |
| 20260509204017 | 60 | 0.0 | 0.0 | 0.00 | 0.00 | 0.00 | 78 | 1012.8 | |
| 20260509203017 | 61 | 0.0 | 0.0 | 0.00 | 0.00 | 0.00 | 77 | 1012.7 | |
| 20260509202019 | 61 | 0.0 | 0.0 | 0.00 | 0.00 | 0.00 | 76 | 1012.6 | |
| 20260509201018 | 62 | 0.0 | 0.0 | 0.00 | 0.00 | 0.00 | 75 | 1012.7 | |
| 20260509200038 | 62 | 0.0 | 0.0 | 0.00 | 0.00 | 0.00 | 74 | 1012.7 | |
| 20260509195017 | 63 | 0.0 | 0.0 | 0.00 | 0.00 | 0.00 | 73 | 1012.6 | |
| 20260509194017 | 64 | 0.0 | 0.0 | 0.00 | 0.00 | 0.00 | 71 | 1012.5 | |
| 20260509193017 | 64 | 0.0 | 0.0 | 0.00 | 0.00 | 0.00 | 70 | 1012.4 | |
| 20260509192018 | 65 | 0.0 | 0.0 | 0.00 | 0.00 | 0.00 | 68 | 1012.3 | |
| 20260509191017 | 66 | 0.0 | 0.0 | 0.00 | 0.00 | 0.00 | 67 | 1012.3 | |
| 20260509190119 | 66 | 0.0 | 0.0 | 0.00 | 0.00 | 0.00 | 66 | 1012.3 | |
| 20260509185037 | 67 | 0.0 | 0.0 | 0.00 | 0.00 | 0.00 | 65 | 1012.3 | |
| 20260509184017 | 68 | 0.0 | 0.0 | 0.00 | 0.00 | 0.00 | 63 | 1012.1 | |
| 20260509183017 | 68 | 0.0 | 0.0 | 0.00 | 0.00 | 0.00 | 63 | 1012.0 | |
| 20260509182027 | 69 | 0.0 | 1.0 | 0.00 | 0.00 | 0.00 | 60 | 1012.1 | |
| 20260509181017 | 69 | 0.0 | 3.0 | 0.00 | 0.00 | 0.00 | 59 | 1012.0 | |
| 20260509180018 | 70 | 270 | 1.0 | 3.0 | 0.00 | 0.00 | 0.00 | 59 | 1011.8 |
| 20260509175017 | 71 | 338 | 1.0 | 3.0 | 0.00 | 0.00 | 0.00 | 57 | 1011.9 |
| 20260509174027 | 72 | 0.0 | 2.0 | 0.00 | 0.00 | 0.00 | 57 | 1011.9 | |
| 20260509173037 | 72 | 90 | 1.0 | 3.0 | 0.00 | 0.00 | 0.00 | 55 | 1012.0 |
| 20260509172017 | 73 | 203 | 1.0 | 2.0 | 0.00 | 0.00 | 0.00 | 55 | 1012.1 |
| 20260509171037 | 73 | 113 | 1.0 | 4.0 | 0.00 | 0.00 | 0.00 | 56 | 1012.2 |
| 20260509170018 | 74 | 315 | 1.0 | 2.0 | 0.00 | 0.00 | 0.00 | 54 | 1012.2 |
| 20260509165017 | 74 | 315 | 1.0 | 3.0 | 0.00 | 0.00 | 0.00 | 55 | 1012.3 |
| 20260509164017 | 74 | 338 | 1.0 | 3.0 | 0.00 | 0.00 | 0.00 | 51 | 1012.3 |
| 20260509163027 | 75 | 113 | 1.0 | 4.0 | 0.00 | 0.00 | 0.00 | 52 | 1012.4 |
| 20260509162017 | 75 | 113 | 1.0 | 3.0 | 0.00 | 0.00 | 0.00 | 53 | 1012.4 |
| 20260509161017 | 75 | 338 | 1.0 | 3.0 | 0.00 | 0.00 | 0.00 | 54 | 1012.4 |
| 20260509160017 | 75 | 113 | 1.0 | 3.0 | 0.00 | 0.00 | 0.00 | 53 | 1012.4 |
| 20260509155027 | 76 | 338 | 1.0 | 5.0 | 0.00 | 0.00 | 0.00 | 51 | 1012.6 |
| 20260509154018 | 76 | 293 | 2.0 | 7.0 | 0.00 | 0.00 | 0.00 | 51 | 1012.6 |
| 20260509153017 | 76 | 338 | 2.0 | 6.0 | 0.00 | 0.00 | 0.00 | 53 | 1012.7 |
| 20260509152018 | 76 | 338 | 2.0 | 5.0 | 0.00 | 0.00 | 0.00 | 52 | 1012.9 |
| 20260509151017 | 76 | 338 | 1.0 | 5.0 | 0.00 | 0.00 | 0.00 | 52 | 1012.9 |
| 20260509150027 | 76 | 0 | 1.0 | 4.0 | 0.00 | 0.00 | 0.00 | 56 | 1013.1 |
| 20260509145017 | 76 | 338 | 1.0 | 3.0 | 0.00 | 0.00 | 0.00 | 53 | 1013.1 |
| 20260509144028 | 76 | 135 | 1.0 | 3.0 | 0.00 | 0.00 | 0.00 | 51 | 1013.3 |
| 20260509143017 | 76 | 293 | 1.0 | 3.0 | 0.00 | 0.00 | 0.00 | 55 | 1013.1 |
| 20260509142018 | 76 | 0 | 1.0 | 4.0 | 0.00 | 0.00 | 0.00 | 54 | 1013.2 |
| 20260509141017 | 75 | 0 | 1.0 | 5.0 | 0.00 | 0.00 | 0.00 | 54 | 1013.2 |
| 20260509140027 | 75 | 315 | 2.0 | 5.0 | 0.00 | 0.00 | 0.00 | 54 | 1013.1 |
| 20260509135018 | 74 | 90 | 1.0 | 3.0 | 0.00 | 0.00 | 0.00 | 58 | 1013.1 |
| 20260509134017 | 73 | 338 | 1.0 | 4.0 | 0.00 | 0.00 | 0.00 | 56 | 1013.2 |
| 20260509133018 | 75 | 338 | 1.0 | 4.0 | 0.00 | 0.00 | 0.00 | 56 | 1013.3 |
| 20260509132017 | 75 | 338 | 1.0 | 4.0 | 0.00 | 0.00 | 0.00 | 55 | 1013.4 |
| 20260509131017 | 74 | 248 | 1.0 | 4.0 | 0.00 | 0.00 | 0.00 | 57 | 1013.4 |
| 20260509130018 | 73 | 135 | 1.0 | 3.0 | 0.00 | 0.00 | 0.00 | 54 | 1013.4 |
| 20260509125017 | 73 | 338 | 3.0 | 8.0 | 0.00 | 0.00 | 0.00 | 57 | 1013.4 |
| 20260509124016 | 74 | 338 | 2.0 | 5.0 | 0.00 | 0.00 | 0.00 | 57 | 1013.6 |
| 20260509123027 | 73 | 315 | 1.0 | 4.0 | 0.00 | 0.00 | 0.00 | 56 | 1013.7 |
| 20260509122027 | 73 | 68 | 2.0 | 4.0 | 0.00 | 0.00 | 0.00 | 57 | 1013.8 |
| 20260509121016 | 72 | 338 | 1.0 | 3.0 | 0.00 | 0.00 | 0.00 | 59 | 1013.9 |
| 20260509120018 | 72 | 338 | 2.0 | 5.0 | 0.00 | 0.00 | 0.00 | 57 | 1014.0 |
| 20260509115016 | 72 | 338 | 2.0 | 4.0 | 0.00 | 0.00 | 0.00 | 63 | 1014.1 |
| 20260509114016 | 71 | 338 | 1.0 | 4.0 | 0.00 | 0.00 | 0.00 | 57 | 1014.1 |
| 20260509113016 | 71 | 338 | 2.0 | 6.0 | 0.00 | 0.00 | 0.00 | 60 | 1014.4 |
| 20260509112016 | 71 | 315 | 1.0 | 3.0 | 0.00 | 0.00 | 0.00 | 60 | 1014.5 |
| 20260509111016 | 70 | 338 | 2.0 | 5.0 | 0.00 | 0.00 | 0.00 | 60 | 1014.6 |
| 20260509110028 | 70 | 0 | 2.0 | 4.0 | 0.00 | 0.00 | 0.00 | 61 | 1014.7 |
| 20260509105017 | 70 | 315 | 2.0 | 4.0 | 0.00 | 0.00 | 0.00 | 60 | 1014.7 |
| 20260509104016 | 70 | 338 | 2.0 | 6.0 | 0.00 | 0.00 | 0.00 | 62 | 1014.7 |
| 20260509103018 | 70 | 225 | 1.0 | 3.0 | 0.00 | 0.00 | 0.00 | 63 | 1015.0 |
| 20260509102016 | 70 | 338 | 1.0 | 3.0 | 0.00 | 0.00 | 0.00 | 66 | 1015.0 |
| 20260509101016 | 69 | 315 | 1.0 | 3.0 | 0.00 | 0.00 | 0.00 | 66 | 1015.1 |
| 20260509100026 | 69 | 113 | 1.0 | 3.0 | 0.00 | 0.00 | 0.00 | 63 | 1015.1 |
| 20260509095016 | 69 | 315 | 1.0 | 3.0 | 0.00 | 0.00 | 0.00 | 64 | 1015.1 |
| 20260509094017 | 68 | 0 | 1.0 | 3.0 | 0.00 | 0.00 | 0.00 | 70 | 1015.2 |
| 20260509093026 | 67 | 338 | 2.0 | 4.0 | 0.00 | 0.00 | 0.00 | 65 | 1015.1 |
| 20260509092016 | 67 | 225 | 1.0 | 4.0 | 0.00 | 0.00 | 0.00 | 70 | 1015.2 |
| 20260509091017 | 66 | 0 | 1.0 | 3.0 | 0.00 | 0.00 | 0.00 | 67 | 1015.2 |
| 20260509090016 | 66 | 338 | 1.0 | 3.0 | 0.00 | 0.00 | 0.00 | 71 | 1015.3 |
| 20260509085017 | 65 | 90 | 1.0 | 3.0 | 0.00 | 0.00 | 0.00 | 71 | 1015.3 |
| 20260509084026 | 64 | 0.0 | 2.0 | 0.00 | 0.00 | 0.00 | 71 | 1015.2 | |
| 20260509083018 | 64 | 315 | 2.0 | 4.0 | 0.00 | 0.00 | 0.00 | 71 | 1015.3 |
| 20260509082018 | 64 | 338 | 2.0 | 3.0 | 0.00 | 0.00 | 0.00 | 69 | 1015.5 |
| 20260509081019 | 63 | 293 | 1.0 | 4.0 | 0.00 | 0.00 | 0.00 | 74 | 1015.6 |
| 20260509080018 | 62 | 90 | 1.0 | 3.0 | 0.00 | 0.00 | 0.00 | 78 | 1015.6 |
| 20260509075019 | 60 | 338 | 1.0 | 5.0 | 0.00 | 0.00 | 0.00 | 78 | 1015.6 |
| 20260509074018 | 60 | 338 | 1.0 | 6.0 | 0.00 | 0.00 | 0.00 | 79 | 1015.6 |
| 20260509073018 | 59 | 90 | 1.0 | 2.0 | 0.00 | 0.00 | 0.00 | 83 | 1015.7 |
| 20260509072016 | 58 | 0.0 | 2.0 | 0.00 | 0.00 | 0.00 | 86 | 1015.7 | |
| 20260509071018 | 55 | 0.0 | 2.0 | 0.00 | 0.00 | 0.00 | 88 | 1015.7 | |
| 20260509070018 | 54 | 113 | 1.0 | 4.0 | 0.00 | 0.00 | 0.00 | 89 | 1015.7 |
| 20260509065019 | 53 | 338 | 1.0 | 3.0 | 0.00 | 0.00 | 0.00 | 89 | 1015.7 |
| 20260509064018 | 52 | 0.0 | 2.0 | 0.00 | 0.00 | 0.00 | 89 | 1015.7 | |
| 20260509063028 | 51 | 0.0 | 2.0 | 0.00 | 0.00 | 0.00 | 89 | 1015.7 | |
| 20260509062018 | 51 | 0.0 | 1.0 | 0.00 | 0.00 | 0.00 | 89 | 1015.7 | |
| 20260509061018 | 50 | 0.0 | 3.0 | 0.00 | 0.00 | 0.00 | 89 | 1015.7 | |
| 20260509060018 | 49 | 0.0 | 2.0 | 0.00 | 0.00 | 0.00 | 89 | 1015.5 | |
| 20260509055029 | 49 | 0.0 | 0.0 | 0.00 | 0.00 | 0.00 | 89 | 1015.6 | |
| 20260509054018 | 48 | 0.0 | 1.0 | 0.00 | 0.00 | 0.00 | 89 | 1015.4 | |
| 20260509053018 | 47 | 0.0 | 1.0 | 0.00 | 0.00 | 0.00 | 89 | 1015.5 | |
| 20260509052018 | 47 | 0.0 | 1.0 | 0.00 | 0.00 | 0.00 | 89 | 1015.4 | |
| 20260509051019 | 47 | 0.0 | 2.0 | 0.00 | 0.00 | 0.00 | 89 | 1015.3 | |
| 20260509050018 | 47 | 0.0 | 0.0 | 0.00 | 0.00 | 0.00 | 89 | 1015.3 | |
| 20260509045018 | 47 | 0.0 | 0.0 | 0.00 | 0.00 | 0.00 | 89 | 1015.3 | |
| 20260509044028 | 46 | 0.0 | 0.0 | 0.00 | 0.00 | 0.00 | 89 | 1015.2 | |
| 20260509043020 | 46 | 0.0 | 1.0 | 0.00 | 0.00 | 0.00 | 89 | 1015.1 | |
| 20260509042018 | 47 | 0.0 | 1.0 | 0.00 | 0.00 | 0.00 | 89 | 1015.1 | |
| 20260509041038 | 47 | 0.0 | 1.0 | 0.00 | 0.00 | 0.00 | 89 | 1015.2 | |
| 20260509040018 | 47 | 0.0 | 0.0 | 0.00 | 0.00 | 0.00 | 89 | 1015.3 | |
| 20260509035018 | 47 | 0.0 | 0.0 | 0.00 | 0.00 | 0.00 | 89 | 1015.4 | |
| 20260509034017 | 47 | 0.0 | 0.0 | 0.00 | 0.00 | 0.00 | 89 | 1015.3 | |
| 20260509033017 | 47 | 0.0 | 0.0 | 0.00 | 0.00 | 0.00 | 89 | 1015.4 | |
| 20260509032018 | 46 | 0.0 | 0.0 | 0.00 | 0.00 | 0.00 | 89 | 1015.5 | |
| 20260509031017 | 47 | 0.0 | 1.0 | 0.00 | 0.00 | 0.00 | 89 | 1015.5 | |
| 20260509030018 | 47 | 0.0 | 0.0 | 0.00 | 0.00 | 0.00 | 89 | 1015.6 | |
| 20260509025018 | 47 | 0.0 | 0.0 | 0.00 | 0.00 | 0.00 | 89 | 1015.6 | |
| 20260509024017 | 47 | 0.0 | 1.0 | 0.00 | 0.00 | 0.00 | 89 | 1015.7 | |
| 20260509023017 | 47 | 0.0 | 0.0 | 0.00 | 0.00 | 0.00 | 89 | 1015.6 | |
| 20260509022018 | 47 | 0.0 | 0.0 | 0.00 | 0.00 | 0.00 | 89 | 1015.6 | |
| 20260509021018 | 47 | 0.0 | 0.0 | 0.00 | 0.00 | 0.00 | 89 | 1015.6 | |
| 20260509020018 | 48 | 0.0 | 0.0 | 0.00 | 0.00 | 0.00 | 89 | 1015.7 | |
| 20260509015017 | 48 | 0.0 | 0.0 | 0.00 | 0.00 | 0.00 | 89 | 1015.8 | |
| 20260509014017 | 48 | 0.0 | 0.0 | 0.00 | 0.00 | 0.00 | 89 | 1015.9 | |
| 20260509013017 | 48 | 0.0 | 0.0 | 0.00 | 0.00 | 0.00 | 88 | 1015.9 | |
| 20260509012017 | 48 | 0.0 | 0.0 | 0.00 | 0.00 | 0.00 | 88 | 1016.0 | |
| 20260509011017 | 48 | 0.0 | 0.0 | 0.00 | 0.00 | 0.00 | 89 | 1016.0 | |
| 20260509010119 | 48 | 0.0 | 0.0 | 0.00 | 0.00 | 0.00 | 89 | 1016.1 |